createdAt,value
2022-12-09T00:09:24.187Z,14.40
2022-12-09T00:24:24.440Z,14.70
2022-12-09T00:39:24.404Z,15.00
2022-12-09T00:54:24.657Z,17.70
2022-12-09T01:09:24.847Z,19.50
2022-12-09T01:24:24.899Z,16.50
2022-12-09T01:39:25.272Z,16.30
2022-12-09T01:54:25.340Z,18.70
2022-12-09T02:09:25.743Z,18.50
2022-12-09T02:24:25.803Z,15.90
2022-12-09T02:39:26.114Z,19.00
2022-12-09T02:54:26.237Z,19.30
2022-12-09T03:09:26.608Z,20.00
2022-12-09T03:24:26.644Z,22.20
2022-12-09T03:39:27.383Z,21.60
2022-12-09T03:54:27.958Z,18.80
2022-12-09T04:09:28.174Z,20.70
2022-12-09T04:24:28.397Z,17.50
2022-12-09T04:39:28.583Z,18.30
2022-12-09T04:54:29.073Z,20.20
2022-12-09T05:09:29.528Z,18.90
2022-12-09T05:24:30.700Z,20.80
2022-12-09T05:39:30.481Z,18.50
2022-12-09T05:54:30.976Z,18.20
2022-12-09T06:09:32.287Z,15.00
2022-12-09T06:24:33.103Z,18.50
2022-12-09T06:39:33.220Z,19.60
2022-12-09T06:54:33.512Z,28.60
2022-12-09T07:09:34.181Z,33.50
2022-12-09T07:24:34.746Z,48.70
2022-12-09T07:39:34.906Z,51.20
2022-12-09T07:54:35.112Z,52.80
2022-12-09T08:09:35.824Z,33.40
2022-12-09T08:24:36.847Z,43.70
2022-12-09T08:39:37.612Z,41.50
2022-12-09T08:54:38.160Z,41.10
2022-12-09T09:09:39.523Z,29.60
2022-12-09T09:24:40.384Z,32.30
2022-12-09T09:39:40.603Z,36.60
2022-12-09T09:54:41.676Z,29.10
2022-12-09T10:09:42.383Z,44.80
2022-12-09T10:24:43.159Z,37.80
2022-12-09T10:39:43.339Z,36.00
2022-12-09T10:54:43.532Z,35.80
2022-12-09T11:09:44.774Z,33.90
2022-12-09T11:24:45.829Z,37.70
2022-12-09T11:39:46.547Z,33.40
2022-12-09T11:54:47.059Z,36.60
2022-12-09T12:09:47.695Z,22.50
2022-12-09T12:24:48.348Z,22.80
2022-12-09T12:39:48.926Z,23.60
2022-12-09T12:54:49.535Z,21.30
2022-12-09T13:09:50.181Z,23.50
2022-12-09T13:24:54.117Z,24.80
2022-12-09T13:39:56.172Z,25.40
2022-12-09T13:54:56.276Z,26.50
2022-12-09T14:09:56.597Z,27.50
2022-12-09T14:24:57.137Z,24.10
2022-12-09T14:39:57.473Z,23.50
2022-12-09T14:54:57.429Z,22.80
2022-12-09T15:09:57.572Z,22.80
2022-12-09T15:24:57.809Z,21.10
2022-12-09T15:39:58.040Z,21.60
2022-12-09T15:54:58.382Z,21.80
2022-12-09T16:09:58.251Z,20.60
2022-12-09T16:25:14.330Z,19.80
2022-12-09T16:40:03.590Z,20.60
2022-12-09T16:55:03.808Z,18.10
2022-12-09T17:10:04.471Z,18.60
2022-12-09T17:25:05.537Z,21.20
2022-12-09T17:40:06.328Z,19.50
2022-12-09T17:55:06.839Z,18.50
2022-12-09T18:10:07.996Z,15.80
2022-12-09T18:25:08.808Z,18.10
2022-12-09T18:40:09.191Z,15.80
2022-12-09T18:55:09.196Z,12.70
2022-12-09T19:10:09.693Z,12.70
2022-12-09T19:25:09.613Z,13.80
2022-12-09T19:40:10.294Z,16.20
2022-12-09T19:55:11.058Z,13.60
2022-12-09T20:10:11.333Z,12.00
2022-12-09T20:25:11.500Z,9.60
2022-12-09T20:40:11.821Z,10.00
2022-12-09T20:55:11.988Z,9.00
2022-12-09T21:10:12.753Z,10.00
2022-12-09T21:25:12.987Z,11.10
2022-12-09T21:40:13.194Z,12.90
2022-12-09T21:55:13.912Z,11.20
2022-12-09T22:10:14.619Z,9.50
2022-12-09T22:25:14.925Z,12.60
2022-12-09T22:40:15.249Z,12.00
2022-12-09T22:55:15.530Z,11.00
2022-12-09T23:10:15.856Z,12.00
2022-12-09T23:25:17.851Z,10.20
2022-12-09T23:40:18.526Z,14.10
2022-12-09T23:55:18.711Z,12.30
